sensor_id;sensor_type;location;lat;lon;timestamp;P1;durP1;ratioP1;P2;durP2;ratioP2
26822;SDS011;14852;51.910;8.878;2023-04-01T00:00:56;1.23;;;0.80;;
26822;SDS011;14852;51.910;8.878;2023-04-01T00:03:24;1.95;;;0.80;;
26822;SDS011;14852;51.910;8.878;2023-04-01T00:05:54;2.10;;;0.93;;
26822;SDS011;14852;51.910;8.878;2023-04-01T00:08:22;4.38;;;1.23;;
26822;SDS011;14852;51.910;8.878;2023-04-01T00:10:48;0.98;;;0.80;;
26822;SDS011;14852;51.910;8.878;2023-04-01T00:13:15;1.23;;;0.82;;
26822;SDS011;14852;51.910;8.878;2023-04-01T00:15:41;2.00;;;0.60;;
26822;SDS011;14852;51.910;8.878;2023-04-01T00:18:08;1.75;;;0.70;;
26822;SDS011;14852;51.910;8.878;2023-04-01T00:20:33;1.15;;;0.70;;
26822;SDS011;14852;51.910;8.878;2023-04-01T00:37:15;6.43;;;0.85;;
26822;SDS011;14852;51.910;8.878;2023-04-01T00:39:40;2.53;;;0.70;;
26822;SDS011;14852;51.910;8.878;2023-04-01T00:42:08;1.80;;;0.60;;
26822;SDS011;14852;51.910;8.878;2023-04-01T00:44:36;2.35;;;0.90;;
26822;SDS011;14852;51.910;8.878;2023-04-01T00:47:03;1.25;;;0.70;;
26822;SDS011;14852;51.910;8.878;2023-04-01T00:49:30;2.13;;;0.80;;
26822;SDS011;14852;51.910;8.878;2023-04-01T00:52:07;1.15;;;0.68;;
26822;SDS011;14852;51.910;8.878;2023-04-01T00:54:36;1.52;;;0.80;;
26822;SDS011;14852;51.910;8.878;2023-04-01T00:57:05;1.25;;;0.80;;
26822;SDS011;14852;51.910;8.878;2023-04-01T00:59:48;1.05;;;0.77;;
26822;SDS011;14852;51.910;8.878;2023-04-01T01:02:17;1.08;;;0.57;;
26822;SDS011;14852;51.910;8.878;2023-04-01T01:04:44;0.47;;;0.47;;
26822;SDS011;14852;51.910;8.878;2023-04-01T01:10:31;0.85;;;0.75;;
26822;SDS011;14852;51.910;8.878;2023-04-01T01:13:09;2.13;;;1.20;;
26822;SDS011;14852;51.910;8.878;2023-04-01T01:16:20;0.68;;;0.52;;
26822;SDS011;14852;51.910;8.878;2023-04-01T01:19:06;2.42;;;0.77;;
26822;SDS011;14852;51.910;8.878;2023-04-01T01:25:25;2.13;;;0.85;;
26822;SDS011;14852;51.910;8.878;2023-04-01T01:37:18;1.33;;;0.73;;
26822;SDS011;14852;51.910;8.878;2023-04-01T01:39:53;2.70;;;0.70;;
26822;SDS011;14852;51.910;8.878;2023-04-01T01:42:38;0.50;;;0.50;;
26822;SDS011;14852;51.910;8.878;2023-04-01T01:45:14;0.52;;;0.52;;
26822;SDS011;14852;51.910;8.878;2023-04-01T01:47:45;1.42;;;0.93;;
26822;SDS011;14852;51.910;8.878;2023-04-01T01:50:20;0.95;;;0.57;;
26822;SDS011;14852;51.910;8.878;2023-04-01T01:52:51;1.23;;;0.70;;
26822;SDS011;14852;51.910;8.878;2023-04-01T01:55:35;1.85;;;0.55;;
26822;SDS011;14852;51.910;8.878;2023-04-01T02:00:53;1.10;;;0.70;;
26822;SDS011;14852;51.910;8.878;2023-04-01T02:03:27;1.58;;;0.70;;
26822;SDS011;14852;51.910;8.878;2023-04-01T02:06:05;2.03;;;0.50;;
26822;SDS011;14852;51.910;8.878;2023-04-01T02:08:55;1.35;;;0.70;;
26822;SDS011;14852;51.910;8.878;2023-04-01T02:17:22;1.50;;;0.73;;
26822;SDS011;14852;51.910;8.878;2023-04-01T02:20:04;0.77;;;0.70;;
26822;SDS011;14852;51.910;8.878;2023-04-01T02:22:49;2.40;;;0.80;;
26822;SDS011;14852;51.910;8.878;2023-04-01T02:25:22;2.45;;;1.00;;
26822;SDS011;14852;51.910;8.878;2023-04-01T02:27:58;0.88;;;0.50;;
26822;SDS011;14852;51.910;8.878;2023-04-01T02:30:26;0.80;;;0.50;;
26822;SDS011;14852;51.910;8.878;2023-04-01T02:32:55;0.80;;;0.80;;
26822;SDS011;14852;51.910;8.878;2023-04-01T02:35:26;1.05;;;0.95;;
26822;SDS011;14852;51.910;8.878;2023-04-01T02:37:52;0.52;;;0.40;;
26822;SDS011;14852;51.910;8.878;2023-04-01T02:40:25;3.20;;;0.68;;
26822;SDS011;14852;51.910;8.878;2023-04-01T02:42:53;0.55;;;0.55;;
26822;SDS011;14852;51.910;8.878;2023-04-01T02:45:21;1.45;;;1.00;;
26822;SDS011;14852;51.910;8.878;2023-04-01T02:47:47;1.70;;;0.68;;
26822;SDS011;14852;51.910;8.878;2023-04-01T02:50:14;0.47;;;0.40;;
26822;SDS011;14852;51.910;8.878;2023-04-01T02:52:43;1.30;;;0.60;;
26822;SDS011;14852;51.910;8.878;2023-04-01T02:55:12;0.38;;;0.38;;
26822;SDS011;14852;51.910;8.878;2023-04-01T02:57:44;1.30;;;0.60;;
26822;SDS011;14852;51.910;8.878;2023-04-01T03:00:10;0.50;;;0.40;;
26822;SDS011;14852;51.910;8.878;2023-04-01T03:02:37;2.15;;;0.70;;
26822;SDS011;14852;51.910;8.878;2023-04-01T03:05:04;1.13;;;0.80;;
26822;SDS011;14852;51.910;8.878;2023-04-01T03:07:31;1.42;;;0.57;;
26822;SDS011;14852;51.910;8.878;2023-04-01T03:09:57;0.68;;;0.60;;
26822;SDS011;14852;51.910;8.878;2023-04-01T03:12:23;2.03;;;0.70;;
26822;SDS011;14852;51.910;8.878;2023-04-01T03:14:50;0.68;;;0.55;;
26822;SDS011;14852;51.910;8.878;2023-04-01T03:17:16;0.52;;;0.52;;
26822;SDS011;14852;51.910;8.878;2023-04-01T03:19:42;0.45;;;0.40;;
26822;SDS011;14852;51.910;8.878;2023-04-01T03:22:11;0.40;;;0.40;;
26822;SDS011;14852;51.910;8.878;2023-04-01T03:24:37;0.88;;;0.52;;
26822;SDS011;14852;51.910;8.878;2023-04-01T03:27:03;2.58;;;0.70;;
26822;SDS011;14852;51.910;8.878;2023-04-01T03:29:29;0.40;;;0.40;;
26822;SDS011;14852;51.910;8.878;2023-04-01T03:31:58;0.73;;;0.73;;
26822;SDS011;14852;51.910;8.878;2023-04-01T03:34:24;0.30;;;0.30;;
26822;SDS011;14852;51.910;8.878;2023-04-01T03:36:54;0.70;;;0.70;;
26822;SDS011;14852;51.910;8.878;2023-04-01T03:39:20;1.52;;;0.75;;
26822;SDS011;14852;51.910;8.878;2023-04-01T03:41:46;0.52;;;0.40;;
26822;SDS011;14852;51.910;8.878;2023-04-01T03:44:12;0.47;;;0.47;;
26822;SDS011;14852;51.910;8.878;2023-04-01T03:46:41;0.73;;;0.65;;
26822;SDS011;14852;51.910;8.878;2023-04-01T03:49:08;2.65;;;0.88;;
26822;SDS011;14852;51.910;8.878;2023-04-01T03:51:41;0.40;;;0.38;;
26822;SDS011;14852;51.910;8.878;2023-04-01T03:54:08;1.52;;;0.60;;
26822;SDS011;14852;51.910;8.878;2023-04-01T03:56:39;0.43;;;0.43;;
26822;SDS011;14852;51.910;8.878;2023-04-01T03:59:06;0.55;;;0.40;;
26822;SDS011;14852;51.910;8.878;2023-04-01T04:01:35;0.77;;;0.65;;
26822;SDS011;14852;51.910;8.878;2023-04-01T04:04:04;0.40;;;0.30;;
26822;SDS011;14852;51.910;8.878;2023-04-01T04:06:34;2.20;;;0.60;;
26822;SDS011;14852;51.910;8.878;2023-04-01T04:09:00;0.40;;;0.40;;
26822;SDS011;14852;51.910;8.878;2023-04-01T04:11:38;1.00;;;0.32;;
26822;SDS011;14852;51.910;8.878;2023-04-01T04:14:10;0.75;;;0.25;;
26822;SDS011;14852;51.910;8.878;2023-04-01T04:16:36;0.35;;;0.35;;
26822;SDS011;14852;51.910;8.878;2023-04-01T04:19:03;1.58;;;0.60;;
26822;SDS011;14852;51.910;8.878;2023-04-01T04:21:33;1.08;;;0.93;;
26822;SDS011;14852;51.910;8.878;2023-04-01T04:24:01;1.00;;;0.82;;
26822;SDS011;14852;51.910;8.878;2023-04-01T04:26:48;0.50;;;0.47;;
26822;SDS011;14852;51.910;8.878;2023-04-01T04:29:14;0.80;;;0.52;;
26822;SDS011;14852;51.910;8.878;2023-04-01T04:31:40;0.85;;;0.65;;
26822;SDS011;14852;51.910;8.878;2023-04-01T04:34:07;0.63;;;0.30;;
26822;SDS011;14852;51.910;8.878;2023-04-01T04:36:34;0.47;;;0.40;;
26822;SDS011;14852;51.910;8.878;2023-04-01T04:39:01;0.82;;;0.45;;
26822;SDS011;14852;51.910;8.878;2023-04-01T04:41:27;0.38;;;0.30;;
26822;SDS011;14852;51.910;8.878;2023-04-01T04:43:54;1.45;;;1.20;;
26822;SDS011;14852;51.910;8.878;2023-04-01T04:46:23;0.50;;;0.40;;
26822;SDS011;14852;51.910;8.878;2023-04-01T04:48:55;1.10;;;0.60;;
26822;SDS011;14852;51.910;8.878;2023-04-01T04:51:21;1.20;;;0.68;;
26822;SDS011;14852;51.910;8.878;2023-04-01T04:53:48;1.38;;;0.40;;
26822;SDS011;14852;51.910;8.878;2023-04-01T04:56:21;0.47;;;0.47;;
26822;SDS011;14852;51.910;8.878;2023-04-01T04:59:01;0.90;;;0.50;;
26822;SDS011;14852;51.910;8.878;2023-04-01T05:01:39;0.45;;;0.40;;
26822;SDS011;14852;51.910;8.878;2023-04-01T05:04:05;0.75;;;0.50;;
26822;SDS011;14852;51.910;8.878;2023-04-01T05:06:31;2.72;;;1.45;;
26822;SDS011;14852;51.910;8.878;2023-04-01T05:08:59;1.02;;;0.50;;
26822;SDS011;14852;51.910;8.878;2023-04-01T05:11:25;0.98;;;0.57;;
26822;SDS011;14852;51.910;8.878;2023-04-01T05:13:51;1.08;;;0.50;;
26822;SDS011;14852;51.910;8.878;2023-04-01T05:16:18;0.80;;;0.50;;
26822;SDS011;14852;51.910;8.878;2023-04-01T05:18:45;0.47;;;0.47;;
26822;SDS011;14852;51.910;8.878;2023-04-01T05:21:13;3.60;;;0.70;;
26822;SDS011;14852;51.910;8.878;2023-04-01T05:23:40;0.30;;;0.30;;
26822;SDS011;14852;51.910;8.878;2023-04-01T05:26:12;1.45;;;0.50;;
26822;SDS011;14852;51.910;8.878;2023-04-01T05:28:39;0.43;;;0.30;;
26822;SDS011;14852;51.910;8.878;2023-04-01T05:31:06;0.30;;;0.30;;
26822;SDS011;14852;51.910;8.878;2023-04-01T05:33:36;0.28;;;0.28;;
26822;SDS011;14852;51.910;8.878;2023-04-01T05:36:07;0.40;;;0.40;;
26822;SDS011;14852;51.910;8.878;2023-04-01T05:38:41;0.50;;;0.50;;
26822;SDS011;14852;51.910;8.878;2023-04-01T05:41:15;0.20;;;0.20;;
26822;SDS011;14852;51.910;8.878;2023-04-01T05:43:44;1.67;;;0.80;;
26822;SDS011;14852;51.910;8.878;2023-04-01T05:46:28;1.08;;;0.90;;
26822;SDS011;14852;51.910;8.878;2023-04-01T05:49:07;0.65;;;0.65;;
26822;SDS011;14852;51.910;8.878;2023-04-01T05:51:34;0.50;;;0.40;;
26822;SDS011;14852;51.910;8.878;2023-04-01T05:54:02;0.40;;;0.30;;
26822;SDS011;14852;51.910;8.878;2023-04-01T05:56:31;0.40;;;0.40;;
26822;SDS011;14852;51.910;8.878;2023-04-01T05:58:58;0.20;;;0.20;;
26822;SDS011;14852;51.910;8.878;2023-04-01T06:01:24;0.60;;;0.40;;
26822;SDS011;14852;51.910;8.878;2023-04-01T06:03:53;0.45;;;0.35;;
26822;SDS011;14852;51.910;8.878;2023-04-01T06:06:26;0.40;;;0.40;;
26822;SDS011;14852;51.910;8.878;2023-04-01T06:12:08;0.28;;;0.28;;
26822;SDS011;14852;51.910;8.878;2023-04-01T06:18:02;0.50;;;0.50;;
26822;SDS011;14852;51.910;8.878;2023-04-01T06:42:14;0.75;;;0.38;;
26822;SDS011;14852;51.910;8.878;2023-04-01T06:45:34;0.30;;;0.30;;
26822;SDS011;14852;51.910;8.878;2023-04-01T06:49:06;1.83;;;0.60;;
26822;SDS011;14852;51.910;8.878;2023-04-01T06:55:50;0.40;;;0.40;;
26822;SDS011;14852;51.910;8.878;2023-04-01T06:58:38;0.60;;;0.40;;
26822;SDS011;14852;51.910;8.878;2023-04-01T07:01:16;0.52;;;0.47;;
26822;SDS011;14852;51.910;8.878;2023-04-01T07:03:55;0.40;;;0.40;;
26822;SDS011;14852;51.910;8.878;2023-04-01T07:09:10;1.00;;;0.60;;
26822;SDS011;14852;51.910;8.878;2023-04-01T07:12:19;1.88;;;0.60;;
26822;SDS011;14852;51.910;8.878;2023-04-01T07:15:18;0.40;;;0.40;;
26822;SDS011;14852;51.910;8.878;2023-04-01T07:17:55;1.00;;;0.60;;
26822;SDS011;14852;51.910;8.878;2023-04-01T07:20:32;0.30;;;0.30;;
26822;SDS011;14852;51.910;8.878;2023-04-01T07:23:03;0.43;;;0.43;;
26822;SDS011;14852;51.910;8.878;2023-04-01T07:25:55;1.90;;;0.70;;
26822;SDS011;14852;51.910;8.878;2023-04-01T07:28:30;1.48;;;0.68;;
26822;SDS011;14852;51.910;8.878;2023-04-01T07:31:25;0.73;;;0.60;;
26822;SDS011;14852;51.910;8.878;2023-04-01T07:34:25;0.88;;;0.82;;
26822;SDS011;14852;51.910;8.878;2023-04-01T07:37:06;1.75;;;0.45;;
26822;SDS011;14852;51.910;8.878;2023-04-01T07:39:54;1.10;;;0.85;;
26822;SDS011;14852;51.910;8.878;2023-04-01T07:45:38;0.82;;;0.70;;
26822;SDS011;14852;51.910;8.878;2023-04-01T07:54:26;0.32;;;0.32;;
26822;SDS011;14852;51.910;8.878;2023-04-01T07:59:56;1.00;;;0.80;;
26822;SDS011;14852;51.910;8.878;2023-04-01T08:02:43;1.08;;;1.00;;
26822;SDS011;14852;51.910;8.878;2023-04-01T08:15:03;1.23;;;0.90;;
26822;SDS011;14852;51.910;8.878;2023-04-01T08:21:03;1.52;;;0.70;;
26822;SDS011;14852;51.910;8.878;2023-04-01T08:23:47;0.65;;;0.55;;
26822;SDS011;14852;51.910;8.878;2023-04-01T08:26:37;1.10;;;1.00;;
26822;SDS011;14852;51.910;8.878;2023-04-01T08:29:18;0.57;;;0.52;;
26822;SDS011;14852;51.910;8.878;2023-04-01T08:32:16;0.43;;;0.43;;
26822;SDS011;14852;51.910;8.878;2023-04-01T08:34:58;0.50;;;0.50;;
26822;SDS011;14852;51.910;8.878;2023-04-01T08:37:51;0.98;;;0.80;;
26822;SDS011;14852;51.910;8.878;2023-04-01T08:40:57;1.10;;;1.00;;
26822;SDS011;14852;51.910;8.878;2023-04-01T08:44:03;0.57;;;0.57;;
26822;SDS011;14852;51.910;8.878;2023-04-01T08:49:56;0.60;;;0.60;;
26822;SDS011;14852;51.910;8.878;2023-04-01T08:56:40;0.95;;;0.80;;
26822;SDS011;14852;51.910;8.878;2023-04-01T08:59:27;0.45;;;0.45;;
26822;SDS011;14852;51.910;8.878;2023-04-01T09:05:40;1.35;;;0.75;;
26822;SDS011;14852;51.910;8.878;2023-04-01T09:08:43;1.20;;;0.88;;
26822;SDS011;14852;51.910;8.878;2023-04-01T09:11:44;0.50;;;0.50;;
26822;SDS011;14852;51.910;8.878;2023-04-01T09:20:52;0.65;;;0.65;;
26822;SDS011;14852;51.910;8.878;2023-04-01T09:27:03;1.00;;;0.90;;
26822;SDS011;14852;51.910;8.878;2023-04-01T09:33:16;1.85;;;0.93;;
26822;SDS011;14852;51.910;8.878;2023-04-01T09:39:38;0.68;;;0.52;;
26822;SDS011;14852;51.910;8.878;2023-04-01T09:42:49;1.08;;;0.50;;
26822;SDS011;14852;51.910;8.878;2023-04-01T09:48:43;1.02;;;0.70;;
26822;SDS011;14852;51.910;8.878;2023-04-01T09:51:32;0.80;;;0.75;;
26822;SDS011;14852;51.910;8.878;2023-04-01T09:57:16;0.90;;;0.90;;
26822;SDS011;14852;51.910;8.878;2023-04-01T10:15:17;1.23;;;1.08;;
26822;SDS011;14852;51.910;8.878;2023-04-01T10:18:25;1.00;;;1.00;;
26822;SDS011;14852;51.910;8.878;2023-04-01T10:31:09;0.85;;;0.50;;
26822;SDS011;14852;51.910;8.878;2023-04-01T10:37:15;0.77;;;0.77;;
26822;SDS011;14852;51.910;8.878;2023-04-01T10:50:04;0.52;;;0.52;;
26822;SDS011;14852;51.910;8.878;2023-04-01T10:53:12;0.40;;;0.40;;
26822;SDS011;14852;51.910;8.878;2023-04-01T11:10:54;0.43;;;0.43;;
26822;SDS011;14852;51.910;8.878;2023-04-01T11:16:55;0.63;;;0.40;;
26822;SDS011;14852;51.910;8.878;2023-04-01T11:20:04;0.32;;;0.32;;
26822;SDS011;14852;51.910;8.878;2023-04-01T11:29:03;0.43;;;0.40;;
26822;SDS011;14852;51.910;8.878;2023-04-01T11:32:01;2.47;;;0.60;;
26822;SDS011;14852;51.910;8.878;2023-04-01T11:35:22;0.47;;;0.40;;
26822;SDS011;14852;51.910;8.878;2023-04-01T11:44:28;0.50;;;0.50;;
26822;SDS011;14852;51.910;8.878;2023-04-01T11:50:20;0.40;;;0.40;;
26822;SDS011;14852;51.910;8.878;2023-04-01T11:56:01;0.55;;;0.55;;
26822;SDS011;14852;51.910;8.878;2023-04-01T12:01:56;0.50;;;0.50;;
26822;SDS011;14852;51.910;8.878;2023-04-01T12:05:00;0.52;;;0.52;;
26822;SDS011;14852;51.910;8.878;2023-04-01T12:14:01;0.52;;;0.52;;
26822;SDS011;14852;51.910;8.878;2023-04-01T12:17:03;0.50;;;0.50;;
26822;SDS011;14852;51.910;8.878;2023-04-01T12:26:29;0.45;;;0.45;;
26822;SDS011;14852;51.910;8.878;2023-04-01T12:29:09;0.60;;;0.60;;
26822;SDS011;14852;51.910;8.878;2023-04-01T12:38:03;0.47;;;0.47;;
26822;SDS011;14852;51.910;8.878;2023-04-01T12:44:49;1.10;;;1.00;;
26822;SDS011;14852;51.910;8.878;2023-04-01T12:47:56;0.98;;;0.98;;
26822;SDS011;14852;51.910;8.878;2023-04-01T13:17:44;0.70;;;0.60;;
26822;SDS011;14852;51.910;8.878;2023-04-01T13:28:59;0.70;;;0.70;;
26822;SDS011;14852;51.910;8.878;2023-04-01T13:37:26;1.13;;;0.88;;
26822;SDS011;14852;51.910;8.878;2023-04-01T13:43:42;0.80;;;0.80;;
26822;SDS011;14852;51.910;8.878;2023-04-01T13:46:39;0.60;;;0.55;;
26822;SDS011;14852;51.910;8.878;2023-04-01T13:49:53;0.43;;;0.43;;
26822;SDS011;14852;51.910;8.878;2023-04-01T14:01:44;1.10;;;1.00;;
26822;SDS011;14852;51.910;8.878;2023-04-01T14:04:34;0.60;;;0.60;;
26822;SDS011;14852;51.910;8.878;2023-04-01T14:20:19;0.95;;;0.73;;
26822;SDS011;14852;51.910;8.878;2023-04-01T14:23:19;0.50;;;0.50;;
26822;SDS011;14852;51.910;8.878;2023-04-01T14:26:22;0.70;;;0.70;;
26822;SDS011;14852;51.910;8.878;2023-04-01T14:29:25;0.70;;;0.70;;
26822;SDS011;14852;51.910;8.878;2023-04-01T14:35:35;0.80;;;0.80;;
26822;SDS011;14852;51.910;8.878;2023-04-01T14:38:39;0.75;;;0.73;;
26822;SDS011;14852;51.910;8.878;2023-04-01T14:47:36;0.32;;;0.32;;
26822;SDS011;14852;51.910;8.878;2023-04-01T14:50:31;0.70;;;0.70;;
26822;SDS011;14852;51.910;8.878;2023-04-01T14:53:28;0.60;;;0.60;;
26822;SDS011;14852;51.910;8.878;2023-04-01T14:55:59;0.40;;;0.40;;
26822;SDS011;14852;51.910;8.878;2023-04-01T15:04:22;0.50;;;0.50;;
26822;SDS011;14852;51.910;8.878;2023-04-01T15:10:16;1.00;;;0.50;;
26822;SDS011;14852;51.910;8.878;2023-04-01T15:16:01;0.32;;;0.32;;
26822;SDS011;14852;51.910;8.878;2023-04-01T15:19:15;0.75;;;0.65;;
26822;SDS011;14852;51.910;8.878;2023-04-01T15:22:26;0.70;;;0.70;;
26822;SDS011;14852;51.910;8.878;2023-04-01T15:25:31;0.60;;;0.60;;
26822;SDS011;14852;51.910;8.878;2023-04-01T15:41:04;0.40;;;0.40;;
26822;SDS011;14852;51.910;8.878;2023-04-01T15:46:50;0.38;;;0.38;;
26822;SDS011;14852;51.910;8.878;2023-04-01T15:49:27;0.25;;;0.25;;
26822;SDS011;14852;51.910;8.878;2023-04-01T15:52:14;0.40;;;0.40;;
26822;SDS011;14852;51.910;8.878;2023-04-01T15:57:52;0.85;;;0.85;;
26822;SDS011;14852;51.910;8.878;2023-04-01T16:07:08;1.40;;;0.80;;
26822;SDS011;14852;51.910;8.878;2023-04-01T16:09:54;0.93;;;0.77;;
26822;SDS011;14852;51.910;8.878;2023-04-01T16:18:48;2.40;;;2.20;;
26822;SDS011;14852;51.910;8.878;2023-04-01T16:21:35;2.00;;;1.80;;
26822;SDS011;14852;51.910;8.878;2023-04-01T16:24:43;2.20;;;1.58;;
26822;SDS011;14852;51.910;8.878;2023-04-01T16:36:48;3.70;;;3.08;;
26822;SDS011;14852;51.910;8.878;2023-04-01T16:39:33;3.78;;;2.92;;
26822;SDS011;14852;51.910;8.878;2023-04-01T16:44:53;2.10;;;1.77;;
26822;SDS011;14852;51.910;8.878;2023-04-01T16:48:12;2.08;;;1.48;;
26822;SDS011;14852;51.910;8.878;2023-04-01T16:51:00;1.60;;;0.98;;
26822;SDS011;14852;51.910;8.878;2023-04-01T16:53:43;0.77;;;0.77;;
26822;SDS011;14852;51.910;8.878;2023-04-01T16:56:27;1.85;;;1.23;;
26822;SDS011;14852;51.910;8.878;2023-04-01T17:01:55;0.60;;;0.60;;
26822;SDS011;14852;51.910;8.878;2023-04-01T17:04:35;1.00;;;0.80;;
26822;SDS011;14852;51.910;8.878;2023-04-01T17:10:27;1.23;;;0.80;;
26822;SDS011;14852;51.910;8.878;2023-04-01T17:13:33;1.70;;;0.95;;
26822;SDS011;14852;51.910;8.878;2023-04-01T17:22:21;0.90;;;0.85;;
26822;SDS011;14852;51.910;8.878;2023-04-01T17:25:33;1.52;;;1.20;;
26822;SDS011;14852;51.910;8.878;2023-04-01T17:28:31;1.40;;;1.30;;
26822;SDS011;14852;51.910;8.878;2023-04-01T17:31:26;0.98;;;0.90;;
26822;SDS011;14852;51.910;8.878;2023-04-01T17:34:33;1.98;;;1.08;;
26822;SDS011;14852;51.910;8.878;2023-04-01T17:44:13;1.00;;;1.00;;
26822;SDS011;14852;51.910;8.878;2023-04-01T17:47:21;1.70;;;1.20;;
26822;SDS011;14852;51.910;8.878;2023-04-01T17:52:59;1.38;;;1.23;;
26822;SDS011;14852;51.910;8.878;2023-04-01T17:56:10;1.70;;;1.35;;
26822;SDS011;14852;51.910;8.878;2023-04-01T18:05:05;1.52;;;1.42;;
26822;SDS011;14852;51.910;8.878;2023-04-01T18:08:17;3.80;;;1.63;;
26822;SDS011;14852;51.910;8.878;2023-04-01T18:13:51;2.25;;;2.03;;
26822;SDS011;14852;51.910;8.878;2023-04-01T18:17:12;2.03;;;1.80;;
26822;SDS011;14852;51.910;8.878;2023-04-01T18:20:01;1.92;;;1.73;;
26822;SDS011;14852;51.910;8.878;2023-04-01T18:22:43;2.05;;;1.85;;
26822;SDS011;14852;51.910;8.878;2023-04-01T18:31:17;1.85;;;1.70;;
26822;SDS011;14852;51.910;8.878;2023-04-01T18:37:02;2.53;;;1.60;;
26822;SDS011;14852;51.910;8.878;2023-04-01T18:39:52;2.22;;;1.75;;
26822;SDS011;14852;51.910;8.878;2023-04-01T18:46:17;2.10;;;1.90;;
26822;SDS011;14852;51.910;8.878;2023-04-01T18:49:12;2.40;;;1.77;;
26822;SDS011;14852;51.910;8.878;2023-04-01T18:51:53;1.40;;;1.30;;
26822;SDS011;14852;51.910;8.878;2023-04-01T18:54:54;1.90;;;1.60;;
26822;SDS011;14852;51.910;8.878;2023-04-01T18:57:27;1.70;;;1.60;;
26822;SDS011;14852;51.910;8.878;2023-04-01T19:00:32;1.42;;;1.20;;
26822;SDS011;14852;51.910;8.878;2023-04-01T19:03:20;1.20;;;1.10;;
26822;SDS011;14852;51.910;8.878;2023-04-01T19:06:14;1.55;;;1.45;;
26822;SDS011;14852;51.910;8.878;2023-04-01T19:11:53;2.13;;;1.80;;
26822;SDS011;14852;51.910;8.878;2023-04-01T19:17:45;1.95;;;1.75;;
26822;SDS011;14852;51.910;8.878;2023-04-01T19:20:37;1.70;;;1.50;;
26822;SDS011;14852;51.910;8.878;2023-04-01T19:26:17;1.17;;;1.10;;
26822;SDS011;14852;51.910;8.878;2023-04-01T19:29:18;1.10;;;1.00;;
26822;SDS011;14852;51.910;8.878;2023-04-01T19:37:49;1.38;;;1.20;;
26822;SDS011;14852;51.910;8.878;2023-04-01T19:43:35;2.27;;;2.07;;
26822;SDS011;14852;51.910;8.878;2023-04-01T19:46:36;1.60;;;1.40;;
26822;SDS011;14852;51.910;8.878;2023-04-01T19:52:20;1.20;;;1.10;;
26822;SDS011;14852;51.910;8.878;2023-04-01T20:01:09;1.05;;;1.02;;
26822;SDS011;14852;51.910;8.878;2023-04-01T20:03:57;1.30;;;1.20;;
26822;SDS011;14852;51.910;8.878;2023-04-01T20:06:51;1.02;;;0.98;;
26822;SDS011;14852;51.910;8.878;2023-04-01T20:16:01;1.55;;;1.23;;
26822;SDS011;14852;51.910;8.878;2023-04-01T20:21:36;1.20;;;1.10;;
26822;SDS011;14852;51.910;8.878;2023-04-01T20:24:16;2.35;;;1.60;;
26822;SDS011;14852;51.910;8.878;2023-04-01T20:26:50;1.92;;;1.30;;
26822;SDS011;14852;51.910;8.878;2023-04-01T20:29:41;1.45;;;1.35;;
26822;SDS011;14852;51.910;8.878;2023-04-01T20:44:30;1.60;;;1.50;;
26822;SDS011;14852;51.910;8.878;2023-04-01T20:50:07;1.88;;;1.42;;
26822;SDS011;14852;51.910;8.878;2023-04-01T21:01:23;1.48;;;1.20;;
26822;SDS011;14852;51.910;8.878;2023-04-01T21:04:18;1.58;;;1.40;;
26822;SDS011;14852;51.910;8.878;2023-04-01T21:07:40;3.40;;;1.48;;
26822;SDS011;14852;51.910;8.878;2023-04-01T21:16:08;1.92;;;1.65;;
26822;SDS011;14852;51.910;8.878;2023-04-01T21:19:19;1.80;;;1.65;;
26822;SDS011;14852;51.910;8.878;2023-04-01T21:25:21;1.55;;;1.42;;
26822;SDS011;14852;51.910;8.878;2023-04-01T21:28:12;1.40;;;1.30;;
26822;SDS011;14852;51.910;8.878;2023-04-01T21:37:37;1.50;;;1.35;;
26822;SDS011;14852;51.910;8.878;2023-04-01T21:46:56;1.58;;;1.48;;
26822;SDS011;14852;51.910;8.878;2023-04-01T21:49:44;1.90;;;1.80;;
26822;SDS011;14852;51.910;8.878;2023-04-01T21:56:12;1.40;;;1.30;;
26822;SDS011;14852;51.910;8.878;2023-04-01T21:59:46;2.00;;;1.73;;
26822;SDS011;14852;51.910;8.878;2023-04-01T22:05:40;2.20;;;1.90;;
26822;SDS011;14852;51.910;8.878;2023-04-01T22:11:38;2.35;;;1.83;;
26822;SDS011;14852;51.910;8.878;2023-04-01T22:14:14;1.85;;;1.60;;
26822;SDS011;14852;51.910;8.878;2023-04-01T22:16:58;1.83;;;1.73;;
26822;SDS011;14852;51.910;8.878;2023-04-01T22:19:36;2.33;;;1.60;;
26822;SDS011;14852;51.910;8.878;2023-04-01T22:22:45;2.08;;;1.88;;
26822;SDS011;14852;51.910;8.878;2023-04-01T22:28:46;2.05;;;1.85;;
26822;SDS011;14852;51.910;8.878;2023-04-01T22:31:34;2.28;;;1.73;;
26822;SDS011;14852;51.910;8.878;2023-04-01T22:37:06;2.75;;;2.47;;
26822;SDS011;14852;51.910;8.878;2023-04-01T22:40:03;2.20;;;1.80;;
26822;SDS011;14852;51.910;8.878;2023-04-01T22:43:00;2.22;;;1.92;;
26822;SDS011;14852;51.910;8.878;2023-04-01T22:45:47;2.72;;;2.15;;
26822;SDS011;14852;51.910;8.878;2023-04-01T22:48:16;3.90;;;2.55;;
26822;SDS011;14852;51.910;8.878;2023-04-01T22:51:18;2.60;;;2.20;;
26822;SDS011;14852;51.910;8.878;2023-04-01T22:53:56;2.63;;;2.17;;
26822;SDS011;14852;51.910;8.878;2023-04-01T22:56:59;2.50;;;2.00;;
26822;SDS011;14852;51.910;8.878;2023-04-01T22:59:29;2.72;;;2.08;;
26822;SDS011;14852;51.910;8.878;2023-04-01T23:02:23;2.45;;;1.88;;
26822;SDS011;14852;51.910;8.878;2023-04-01T23:04:59;1.70;;;1.60;;
26822;SDS011;14852;51.910;8.878;2023-04-01T23:13:10;1.73;;;1.63;;
26822;SDS011;14852;51.910;8.878;2023-04-01T23:15:45;2.30;;;1.85;;
26822;SDS011;14852;51.910;8.878;2023-04-01T23:18:15;2.47;;;1.80;;
26822;SDS011;14852;51.910;8.878;2023-04-01T23:20:54;3.05;;;2.17;;
26822;SDS011;14852;51.910;8.878;2023-04-01T23:23:42;2.33;;;1.92;;
26822;SDS011;14852;51.910;8.878;2023-04-01T23:26:24;2.65;;;2.00;;
26822;SDS011;14852;51.910;8.878;2023-04-01T23:28:59;2.58;;;1.92;;
26822;SDS011;14852;51.910;8.878;2023-04-01T23:31:38;3.05;;;2.50;;
26822;SDS011;14852;51.910;8.878;2023-04-01T23:34:27;2.55;;;2.00;;
26822;SDS011;14852;51.910;8.878;2023-04-01T23:37:10;2.58;;;2.05;;
26822;SDS011;14852;51.910;8.878;2023-04-01T23:39:38;3.92;;;2.70;;
26822;SDS011;14852;51.910;8.878;2023-04-01T23:42:23;2.63;;;2.40;;
26822;SDS011;14852;51.910;8.878;2023-04-01T23:44:56;3.10;;;2.40;;
26822;SDS011;14852;51.910;8.878;2023-04-01T23:47:30;3.45;;;2.55;;
26822;SDS011;14852;51.910;8.878;2023-04-01T23:50:18;2.97;;;2.30;;
26822;SDS011;14852;51.910;8.878;2023-04-01T23:53:04;2.92;;;2.50;;
26822;SDS011;14852;51.910;8.878;2023-04-01T23:55:49;4.53;;;3.08;;
